Time;durP1;ratioP1;P1;durP2;ratioP2;P2;SDS_P1;SDS_P2;PMS_P1;PMS_P2;Temp;Humidity;BMP_temperature;BMP_pressure;BME280_temperature;BME280_humidity;BME280_pressure;Samples;Min_cycle;Max_cycle;Signal;HPM_P1;HPM_P2
2022/07/14 00:00:43;;;;;;;0.73;0.40;;;19.10;99.90;;;;;;4947321;28;20051;-87
2022/07/14 00:03:11;;;;;;;0.70;0.32;;;19.10;99.90;;;;;;4939910;28;20061;-89
2022/07/14 00:05:38;;;;;;;0.73;0.47;;;19.10;99.90;;;;;;4969949;28;20046;-87
2022/07/14 00:08:05;;;;;;;0.63;0.40;;;19.10;99.90;;;;;;4954660;28;20065;-87
2022/07/14 00:10:32;;;;;;;1.00;0.30;;;19.00;99.90;;;;;;4942710;28;20058;-87
2022/07/14 00:13:00;;;;;;;1.00;0.45;;;19.00;99.90;;;;;;4936102;28;20082;-89
2022/07/14 00:15:27;;;;;;;0.60;0.38;;;19.00;99.90;;;;;;4933791;28;20054;-87
2022/07/14 00:17:56;;;;;;;0.73;0.30;;;19.00;99.90;;;;;;4933241;28;20057;-87
2022/07/14 00:20:24;;;;;;;0.95;0.30;;;19.00;99.90;;;;;;4932284;28;20138;-89
2022/07/14 00:22:51;;;;;;;0.47;0.30;;;18.90;99.90;;;;;;4934413;29;20102;-88
2022/07/14 00:25:18;;;;;;;0.43;0.40;;;19.00;99.90;;;;;;4934327;28;20150;-87
2022/07/14 00:27:46;;;;;;;0.75;0.30;;;19.00;99.90;;;;;;4955076;28;20101;-86
2022/07/14 00:30:13;;;;;;;0.63;0.40;;;18.90;99.90;;;;;;4955147;28;20058;-86
2022/07/14 00:32:40;;;;;;;0.95;0.30;;;18.80;99.90;;;;;;4937984;28;20082;-87
2022/07/14 00:35:08;;;;;;;0.35;0.35;;;18.90;99.90;;;;;;4931417;29;20051;-87
2022/07/14 00:37:35;;;;;;;0.57;0.45;;;18.80;99.90;;;;;;4920387;28;20051;-87
2022/07/14 00:40:04;;;;;;;0.65;0.28;;;18.80;99.90;;;;;;4933463;29;20418;-87
2022/07/14 00:42:35;;;;;;;0.52;0.40;;;18.80;99.90;;;;;;4953152;28;20054;-87
2022/07/14 00:45:06;;;;;;;0.40;0.25;;;18.70;99.90;;;;;;4933966;29;20055;-86
2022/07/14 00:47:34;;;;;;;1.13;0.50;;;18.60;99.90;;;;;;4936412;28;20130;-87
2022/07/14 00:50:01;;;;;;;0.20;0.20;;;18.60;99.90;;;;;;4937083;28;20055;-86
2022/07/14 00:52:35;;;;;;;1.50;0.80;;;18.60;99.90;;;;;;4937648;28;20177;-86
2022/07/14 00:55:02;;;;;;;1.10;0.50;;;18.60;99.90;;;;;;4951927;28;20062;-87
2022/07/14 00:57:29;;;;;;;1.20;0.45;;;18.50;99.90;;;;;;4934756;28;20043;-87
2022/07/14 00:59:56;;;;;;;0.57;0.30;;;18.50;99.90;;;;;;4936040;28;20054;-91
2022/07/14 01:02:23;;;;;;;1.15;0.55;;;18.50;99.90;;;;;;4935493;28;20063;-91
2022/07/14 01:04:51;;;;;;;0.73;0.38;;;18.50;99.90;;;;;;4935665;28;20101;-87
2022/07/14 01:07:18;;;;;;;0.90;0.32;;;18.50;99.90;;;;;;4951579;28;20494;-87
2022/07/14 01:09:46;;;;;;;2.17;0.50;;;18.50;99.90;;;;;;4935098;28;20412;-91
2022/07/14 01:12:14;;;;;;;0.77;0.43;;;18.40;99.90;;;;;;4935560;28;20061;-87
2022/07/14 01:14:41;;;;;;;0.73;0.57;;;18.40;99.90;;;;;;4937082;28;20521;-87
2022/07/14 01:17:09;;;;;;;0.28;0.20;;;18.40;99.90;;;;;;4936893;28;20474;-87
2022/07/14 01:19:36;;;;;;;1.25;0.40;;;18.30;99.90;;;;;;4953659;28;20058;-85
2022/07/14 01:22:03;;;;;;;0.85;0.40;;;18.30;99.90;;;;;;4937794;28;20146;-88
2022/07/14 01:24:30;;;;;;;0.82;0.50;;;18.30;99.90;;;;;;4937891;28;20488;-87
2022/07/14 01:26:57;;;;;;;1.20;0.43;;;18.30;99.90;;;;;;4941404;28;20059;-90
2022/07/14 01:29:24;;;;;;;0.40;0.35;;;18.30;99.90;;;;;;4942350;28;20055;-93
2022/07/14 01:34:27;;;;;;;0.50;0.35;;;18.30;99.90;;;;;;5332166;23;20457;-87
2022/07/14 01:36:54;;;;;;;0.77;0.40;;;18.30;99.90;;;;;;4953882;28;20046;-87
2022/07/14 01:39:21;;;;;;;1.27;0.50;;;18.30;99.90;;;;;;4939898;28;20050;-87
2022/07/14 01:41:49;;;;;;;0.40;0.40;;;18.20;99.90;;;;;;4956119;28;20109;-86
2022/07/14 01:44:16;;;;;;;0.93;0.50;;;18.20;99.90;;;;;;4933031;28;20055;-86
2022/07/14 01:46:43;;;;;;;0.57;0.20;;;18.20;99.90;;;;;;4955451;28;20058;-86
2022/07/14 01:49:10;;;;;;;0.75;0.45;;;18.20;99.90;;;;;;4957602;28;20059;-86
2022/07/14 01:51:37;;;;;;;1.52;0.50;;;18.30;99.90;;;;;;4923204;28;20074;-87
2022/07/14 01:54:05;;;;;;;1.15;0.60;;;18.30;99.90;;;;;;4930971;28;20085;-86
2022/07/14 01:56:33;;;;;;;1.02;0.60;;;18.30;99.90;;;;;;4952576;28;20109;-86
2022/07/14 01:59:02;;;;;;;2.35;0.93;;;18.40;99.90;;;;;;4956621;28;20050;-86
2022/07/14 02:01:41;;;;;;;1.33;0.70;;;18.40;99.90;;;;;;4938977;28;20053;-85
2022/07/14 02:04:15;;;;;;;0.85;0.50;;;18.40;99.90;;;;;;4936221;28;20065;-86
2022/07/14 02:06:44;;;;;;;0.30;0.30;;;18.40;99.90;;;;;;4955853;28;20054;-86
2022/07/14 02:09:11;;;;;;;0.60;0.47;;;18.40;99.90;;;;;;4950674;28;20046;-86
2022/07/14 02:14:24;;;;;;;1.15;0.40;;;18.30;99.90;;;;;;4956372;28;20058;-86
2022/07/14 02:16:51;;;;;;;1.17;0.40;;;18.30;99.90;;;;;;4921783;28;20062;-86
2022/07/14 02:19:18;;;;;;;0.68;0.40;;;18.30;99.90;;;;;;4924770;28;20513;-88
2022/07/14 02:21:48;;;;;;;1.02;0.47;;;18.30;99.90;;;;;;4924462;28;20055;-87
2022/07/14 02:24:15;;;;;;;0.80;0.35;;;18.40;99.90;;;;;;4924360;28;20059;-87
2022/07/14 02:26:42;;;;;;;1.30;0.57;;;18.40;99.90;;;;;;4924285;28;20065;-86
2022/07/14 02:29:09;;;;;;;0.65;0.45;;;18.40;99.90;;;;;;4924383;28;20051;-86
2022/07/14 02:31:36;;;;;;;0.73;0.50;;;18.50;99.90;;;;;;4939164;28;20364;-87
2022/07/14 02:34:03;;;;;;;1.20;0.60;;;18.50;99.90;;;;;;4929424;28;20413;-86
2022/07/14 02:36:30;;;;;;;1.05;0.57;;;18.50;99.90;;;;;;4955818;28;20465;-86
2022/07/14 02:38:57;;;;;;;0.70;0.47;;;18.50;99.90;;;;;;4955280;28;20059;-86
2022/07/14 02:41:24;;;;;;;1.02;0.60;;;18.50;99.90;;;;;;4969476;28;20054;-85
2022/07/14 02:43:51;;;;;;;2.53;0.90;;;18.50;99.90;;;;;;4949813;28;20058;-87
2022/07/14 02:46:19;;;;;;;1.50;0.73;;;18.50;99.90;;;;;;4937722;28;20153;-86
2022/07/14 02:48:46;;;;;;;1.60;0.70;;;18.50;99.90;;;;;;4936881;28;20055;-88
2022/07/14 02:51:13;;;;;;;1.02;0.47;;;18.50;99.90;;;;;;4937853;28;20124;-87
2022/07/14 02:53:40;;;;;;;1.23;0.50;;;18.50;99.90;;;;;;4938741;28;20070;-88
2022/07/14 02:56:07;;;;;;;1.02;0.40;;;18.50;99.90;;;;;;4967995;28;20242;-86
2022/07/14 02:58:35;;;;;;;0.93;0.50;;;18.50;99.90;;;;;;4952132;28;20497;-87
2022/07/14 03:01:06;;;;;;;1.15;0.50;;;18.50;99.90;;;;;;4950350;28;20055;-86
2022/07/14 03:03:37;;;;;;;1.45;0.80;;;18.40;99.90;;;;;;4950198;28;20065;-86
2022/07/14 03:06:11;;;;;;;0.55;0.43;;;18.50;99.90;;;;;;4937777;28;20057;-86
2022/07/14 03:08:39;;;;;;;0.35;0.32;;;18.50;99.90;;;;;;4939424;28;20070;-86
2022/07/14 03:11:06;;;;;;;1.00;0.50;;;18.60;99.90;;;;;;4922364;28;20081;-87
2022/07/14 03:13:35;;;;;;;0.98;0.43;;;18.60;99.90;;;;;;4921300;28;20506;-88
2022/07/14 03:16:02;;;;;;;0.73;0.43;;;18.60;99.90;;;;;;4936617;28;20113;-87
2022/07/14 03:18:29;;;;;;;1.00;0.50;;;18.60;99.90;;;;;;4937187;28;20051;-86
2022/07/14 03:20:56;;;;;;;1.00;0.60;;;18.60;99.90;;;;;;4939541;28;20055;-87
2022/07/14 03:23:23;;;;;;;1.30;0.60;;;18.60;99.90;;;;;;4938323;28;20565;-87
2022/07/14 03:25:50;;;;;;;1.27;0.60;;;18.60;99.90;;;;;;4953336;28;20051;-86
2022/07/14 03:28:17;;;;;;;0.50;0.50;;;18.60;99.90;;;;;;4969107;28;20070;-89
2022/07/14 03:30:44;;;;;;;0.95;0.50;;;18.60;99.90;;;;;;4952566;28;20055;-89
2022/07/14 03:33:11;;;;;;;1.42;0.70;;;18.50;99.90;;;;;;4950582;28;20061;-89
2022/07/14 03:35:39;;;;;;;0.85;0.40;;;18.50;99.90;;;;;;4937149;28;20350;-89
2022/07/14 03:38:06;;;;;;;0.60;0.60;;;18.40;99.90;;;;;;4936976;28;20058;-88
2022/07/14 03:40:53;;;;;;;1.48;0.68;;;18.40;99.90;;;;;;4928978;28;20114;-87
2022/07/14 03:43:20;;;;;;;1.08;0.63;;;18.40;99.90;;;;;;4921543;28;20051;-87
2022/07/14 03:45:47;;;;;;;1.52;0.65;;;18.40;99.90;;;;;;4936742;28;20085;-87
2022/07/14 03:48:14;;;;;;;1.13;0.65;;;18.40;99.90;;;;;;4923331;28;20246;-87
2022/07/14 03:50:41;;;;;;;1.25;0.75;;;18.40;99.90;;;;;;4936754;28;20513;-87
2022/07/14 03:53:08;;;;;;;1.48;0.63;;;18.50;99.90;;;;;;4937402;28;20057;-87
2022/07/14 03:55:36;;;;;;;1.10;0.55;;;18.50;99.90;;;;;;4937966;28;20059;-89
2022/07/14 03:58:03;;;;;;;0.75;0.40;;;18.50;99.90;;;;;;4936818;28;20093;-87
2022/07/14 04:00:30;;;;;;;0.75;0.60;;;18.50;99.90;;;;;;4935628;28;20046;-88
2022/07/14 04:02:57;;;;;;;0.88;0.70;;;18.50;99.90;;;;;;4936962;28;20058;-86
2022/07/14 04:05:24;;;;;;;1.48;0.80;;;18.50;99.90;;;;;;4936589;28;20109;-87
2022/07/14 04:07:51;;;;;;;0.98;0.60;;;18.50;99.90;;;;;;4936186;28;20051;-87
2022/07/14 04:10:18;;;;;;;0.65;0.40;;;18.50;99.90;;;;;;4935806;28;20063;-87
2022/07/14 04:12:45;;;;;;;1.58;0.43;;;18.50;99.90;;;;;;4940726;28;20160;-86
2022/07/14 04:15:12;;;;;;;1.33;0.57;;;18.50;99.90;;;;;;4932157;28;20137;-87
2022/07/14 04:17:39;;;;;;;1.67;1.02;;;18.50;99.90;;;;;;4921704;28;20047;-89
2022/07/14 04:20:07;;;;;;;1.10;0.50;;;18.50;99.90;;;;;;4924802;28;20062;-87
2022/07/14 04:22:34;;;;;;;0.88;0.65;;;18.50;99.90;;;;;;4939140;28;20062;-87
2022/07/14 04:25:06;;;;;;;1.10;0.68;;;18.50;99.90;;;;;;4929821;28;20042;-87
2022/07/14 04:27:33;;;;;;;1.52;0.70;;;18.50;99.90;;;;;;4925221;28;20059;-88
2022/07/14 04:30:04;;;;;;;1.73;0.70;;;18.60;99.90;;;;;;4925826;28;20141;-90
2022/07/14 04:32:31;;;;;;;0.68;0.50;;;18.50;99.90;;;;;;4926260;28;20475;-90
2022/07/14 04:34:58;;;;;;;1.27;0.80;;;18.50;99.90;;;;;;4926050;28;20058;-90
2022/07/14 04:37:27;;;;;;;0.85;0.50;;;18.60;99.90;;;;;;4926952;28;20050;-91
2022/07/14 04:39:57;;;;;;;0.80;0.50;;;18.50;99.90;;;;;;4920088;28;20050;-89
2022/07/14 04:42:33;;;;;;;0.93;0.70;;;18.60;99.90;;;;;;4927149;28;20559;-93
2022/07/14 04:45:03;;;;;;;2.30;0.73;;;18.50;99.90;;;;;;4927899;28;20118;-89
2022/07/14 04:47:30;;;;;;;1.30;0.70;;;18.60;99.90;;;;;;4926684;28;20489;-90
2022/07/14 04:52:47;;;;;;;1.15;0.80;;;18.60;99.90;;;;;;4946857;28;20061;-89
2022/07/14 04:55:15;;;;;;;1.95;0.80;;;18.50;99.90;;;;;;4925582;28;20141;-89
2022/07/14 04:57:42;;;;;;;1.30;0.68;;;18.60;99.90;;;;;;4942163;28;20047;-88
2022/07/14 05:00:11;;;;;;;1.77;0.70;;;18.70;99.90;;;;;;4943895;28;20472;-91
2022/07/14 05:02:38;;;;;;;0.60;0.50;;;18.70;99.90;;;;;;4930385;28;20057;-88
2022/07/14 05:05:06;;;;;;;1.63;0.80;;;18.80;99.90;;;;;;4939456;28;20225;-89
2022/07/14 05:07:33;;;;;;;0.98;0.52;;;18.70;99.90;;;;;;4959874;28;20055;-89
2022/07/14 05:10:00;;;;;;;2.00;0.88;;;18.80;99.90;;;;;;4950050;28;20051;-89
2022/07/14 05:12:27;;;;;;;1.45;0.73;;;18.80;99.90;;;;;;4928983;28;20117;-89
2022/07/14 05:14:55;;;;;;;1.80;0.93;;;18.70;99.90;;;;;;4940418;28;20583;-91
2022/07/14 05:17:22;;;;;;;1.55;0.93;;;18.70;99.90;;;;;;4961695;28;20059;-90
2022/07/14 05:19:52;;;;;;;1.35;0.95;;;18.70;99.90;;;;;;4955619;28;20062;-89
2022/07/14 05:22:19;;;;;;;1.20;0.70;;;18.70;99.90;;;;;;4929947;28;20050;-88
2022/07/14 05:24:46;;;;;;;1.85;0.68;;;18.80;99.90;;;;;;4954684;28;20055;-88
2022/07/14 05:27:13;;;;;;;1.77;0.70;;;18.80;99.90;;;;;;4949558;28;20061;-90
2022/07/14 05:29:40;;;;;;;1.08;0.63;;;18.80;99.90;;;;;;4942959;28;20053;-89
2022/07/14 05:32:07;;;;;;;2.30;1.10;;;18.80;99.90;;;;;;4942985;28;20516;-88
2022/07/14 05:34:41;;;;;;;1.20;0.70;;;18.80;99.90;;;;;;4932839;29;20064;-88
2022/07/14 05:37:08;;;;;;;1.25;0.60;;;18.80;99.90;;;;;;4922285;29;20054;-88
2022/07/14 05:39:35;;;;;;;1.48;0.70;;;18.80;99.90;;;;;;4925677;29;20070;-88
2022/07/14 05:42:02;;;;;;;1.83;0.95;;;18.90;99.90;;;;;;4926066;29;20047;-89
2022/07/14 05:44:30;;;;;;;0.40;0.40;;;18.90;99.90;;;;;;4935302;28;20061;-88
2022/07/14 05:46:57;;;;;;;1.27;0.90;;;18.80;99.90;;;;;;4959637;28;20054;-88
2022/07/14 05:49:24;;;;;;;2.10;1.10;;;18.80;99.90;;;;;;4956815;29;20058;-89
2022/07/14 05:51:54;;;;;;;2.03;0.90;;;18.70;99.90;;;;;;4911954;29;20071;-90
2022/07/14 05:54:25;;;;;;;2.72;1.10;;;18.70;99.90;;;;;;4918528;29;20420;-89
2022/07/14 05:56:53;;;;;;;2.08;0.95;;;18.80;99.90;;;;;;4906197;29;20506;-90
2022/07/14 05:59:20;;;;;;;1.73;0.95;;;18.80;99.90;;;;;;4911316;29;20048;-89
2022/07/14 06:02:07;;;;;;;1.58;1.08;;;18.80;99.90;;;;;;4924674;29;20059;-89
2022/07/14 06:04:34;;;;;;;1.33;0.80;;;18.80;99.90;;;;;;4921974;29;20047;-89
2022/07/14 06:07:01;;;;;;;1.30;0.85;;;18.90;99.90;;;;;;4903459;29;20055;-89
2022/07/14 06:09:28;;;;;;;2.53;0.68;;;19.00;99.90;;;;;;4914917;29;20139;-89
2022/07/14 06:11:56;;;;;;;1.65;0.77;;;19.00;99.90;;;;;;4921666;28;20067;-90
2022/07/14 06:14:23;;;;;;;1.33;0.75;;;19.00;99.90;;;;;;4917053;29;20043;-89
2022/07/14 06:16:50;;;;;;;1.33;0.68;;;19.00;99.90;;;;;;4928097;29;20521;-89
2022/07/14 06:19:17;;;;;;;1.00;0.77;;;19.00;99.90;;;;;;4919620;29;20066;-90
2022/07/14 06:21:44;;;;;;;0.90;0.82;;;19.10;99.90;;;;;;4914530;29;20106;-90
2022/07/14 06:24:12;;;;;;;1.48;0.68;;;19.20;99.90;;;;;;4920626;29;20244;-92
2022/07/14 06:26:40;;;;;;;1.10;0.68;;;19.20;99.90;;;;;;4913879;29;20044;-91
2022/07/14 06:29:08;;;;;;;1.65;0.70;;;19.20;99.90;;;;;;4918044;28;20051;-93
2022/07/14 06:31:36;;;;;;;0.77;0.52;;;19.30;99.90;;;;;;4935729;29;20141;-93
2022/07/14 06:37:05;;;;;;;0.77;0.60;;;19.10;99.90;;;;;;4767792;29;20576;-76
2022/07/14 06:39:35;;;;;;;0.82;0.47;;;19.00;99.90;;;;;;4768370;30;20323;-76
2022/07/14 06:42:03;;;;;;;0.45;0.38;;;19.00;99.90;;;;;;4747110;30;20785;-76
2022/07/14 06:44:30;;;;;;;0.80;0.57;;;18.90;99.90;;;;;;4778228;29;20059;-75
2022/07/14 06:46:57;;;;;;;1.08;0.57;;;18.90;99.90;;;;;;4776728;30;20055;-75
2022/07/14 06:49:25;;;;;;;0.65;0.55;;;18.80;99.90;;;;;;4775955;30;20063;-76
2022/07/14 06:51:52;;;;;;;2.35;0.98;;;18.80;99.90;;;;;;4763411;30;20067;-81
2022/07/14 06:54:22;;;;;;;0.82;0.50;;;18.80;99.90;;;;;;4766277;30;20063;-77
2022/07/14 06:56:49;;;;;;;1.17;0.68;;;18.80;99.90;;;;;;4775364;30;20087;-82
2022/07/14 06:59:16;;;;;;;0.98;0.77;;;18.70;99.90;;;;;;4748889;30;20059;-80
2022/07/14 07:01:43;;;;;;;1.20;0.73;;;18.70;99.90;;;;;;4762087;30;20082;-77
2022/07/14 07:04:10;;;;;;;1.05;0.60;;;18.80;99.90;;;;;;4752113;30;20105;-75
2022/07/14 07:06:45;;;;;;;1.67;0.80;;;18.70;99.90;;;;;;4755733;30;20175;-75
2022/07/14 07:09:12;;;;;;;1.55;0.88;;;18.80;99.90;;;;;;4749495;30;20116;-75
2022/07/14 07:11:39;;;;;;;2.58;0.93;;;18.80;99.90;;;;;;4791055;29;20232;-75
2022/07/14 07:14:06;;;;;;;0.75;0.60;;;18.90;99.90;;;;;;4761558;30;20086;-75
2022/07/14 07:16:33;;;;;;;2.25;0.70;;;18.90;99.90;;;;;;4775789;30;20082;-75
2022/07/14 07:19:00;;;;;;;1.65;0.73;;;19.00;99.90;;;;;;4776149;30;20707;-75
2022/07/14 07:21:27;;;;;;;1.27;0.63;;;19.00;99.90;;;;;;4775565;29;20063;-75
2022/07/14 07:23:54;;;;;;;1.50;0.77;;;19.10;99.90;;;;;;4791454;29;20198;-75
2022/07/14 07:26:24;;;;;;;0.68;0.43;;;19.10;99.90;;;;;;4791233;29;20159;-75
2022/07/14 07:28:53;;;;;;;0.90;0.45;;;19.10;99.90;;;;;;4776444;30;20569;-75
2022/07/14 07:31:28;;;;;;;0.35;0.30;;;19.20;99.90;;;;;;4776267;30;20059;-75
2022/07/14 07:33:55;;;;;;;0.65;0.40;;;19.20;99.90;;;;;;4776149;30;20086;-75
2022/07/14 07:36:22;;;;;;;0.82;0.60;;;19.30;99.90;;;;;;4788879;29;20054;-77
2022/07/14 07:38:49;;;;;;;1.13;0.75;;;19.30;99.90;;;;;;4794882;29;20486;-75
2022/07/14 07:41:16;;;;;;;1.92;0.68;;;19.30;99.90;;;;;;4764412;29;20388;-75
2022/07/14 07:43:43;;;;;;;0.85;0.57;;;19.30;99.90;;;;;;4794124;29;20452;-75
2022/07/14 07:46:09;;;;;;;1.40;0.70;;;19.30;99.90;;;;;;4793163;29;20557;-76
2022/07/14 07:48:36;;;;;;;1.38;0.70;;;19.20;99.90;;;;;;4779565;29;20061;-75
2022/07/14 07:51:03;;;;;;;1.35;0.77;;;19.30;99.90;;;;;;4795325;29;20828;-75
2022/07/14 07:53:31;;;;;;;1.63;0.85;;;19.30;99.90;;;;;;4793448;29;20137;-75
2022/07/14 07:55:58;;;;;;;1.30;0.90;;;19.30;99.90;;;;;;4794967;29;20058;-76
2022/07/14 07:58:25;;;;;;;1.05;0.60;;;19.20;99.90;;;;;;4795647;29;20419;-76
2022/07/14 08:00:52;;;;;;;1.88;0.90;;;19.20;99.90;;;;;;4763834;29;20062;-77
2022/07/14 08:03:19;;;;;;;1.65;0.88;;;19.30;99.90;;;;;;4779067;29;20054;-76
2022/07/14 08:05:46;;;;;;;1.52;0.90;;;19.40;99.90;;;;;;4779213;29;20066;-77
2022/07/14 08:08:33;;;;;;;0.63;0.60;;;19.40;99.90;;;;;;4795257;29;20058;-77
2022/07/14 08:11:00;;;;;;;1.05;0.60;;;19.40;99.90;;;;;;4763963;29;20063;-76
2022/07/14 08:13:29;;;;;;;1.35;0.65;;;19.40;99.90;;;;;;4793256;29;20112;-76
2022/07/14 08:15:57;;;;;;;1.40;0.85;;;19.50;99.90;;;;;;4792451;29;20120;-76
2022/07/14 08:18:24;;;;;;;1.67;0.50;;;19.60;99.90;;;;;;4793823;29;20479;-76
2022/07/14 08:20:52;;;;;;;1.20;0.60;;;19.70;99.90;;;;;;4775548;29;20067;-78
2022/07/14 08:23:19;;;;;;;1.60;0.60;;;19.70;99.90;;;;;;4752077;29;20109;-76
2022/07/14 08:25:46;;;;;;;1.02;0.52;;;19.80;99.90;;;;;;4773698;30;20473;-76
2022/07/14 08:28:13;;;;;;;1.10;0.65;;;19.70;99.90;;;;;;4776939;29;20063;-77
2022/07/14 08:30:40;;;;;;;1.25;0.80;;;19.70;99.90;;;;;;4803977;29;20120;-76
2022/07/14 08:33:08;;;;;;;1.85;0.63;;;19.80;99.80;;;;;;4794612;29;20050;-76
2022/07/14 08:35:35;;;;;;;1.25;0.60;;;19.90;99.10;;;;;;4793705;29;20059;-76
2022/07/14 08:38:02;;;;;;;1.55;0.57;;;19.90;99.00;;;;;;4778609;29;20154;-76
2022/07/14 08:40:37;;;;;;;2.83;0.65;;;20.10;98.80;;;;;;4751721;30;20055;-76
2022/07/14 08:43:04;;;;;;;0.77;0.60;;;20.00;98.40;;;;;;4767062;29;20051;-76
2022/07/14 08:45:33;;;;;;;0.95;0.63;;;20.10;98.50;;;;;;4775913;29;20054;-76
2022/07/14 08:48:00;;;;;;;0.93;0.65;;;20.20;97.50;;;;;;4777460;29;20171;-76
2022/07/14 08:50:27;;;;;;;2.83;0.77;;;20.20;97.20;;;;;;4776531;29;20589;-74
2022/07/14 08:52:54;;;;;;;1.40;0.57;;;20.30;97.10;;;;;;4776984;29;20059;-74
2022/07/14 08:55:21;;;;;;;1.15;0.90;;;20.40;96.40;;;;;;4792931;29;20090;-74
2022/07/14 08:57:47;;;;;;;0.77;0.60;;;20.60;96.10;;;;;;4762608;29;20123;-75
2022/07/14 09:00:16;;;;;;;0.90;0.60;;;20.60;96.30;;;;;;4792833;29;20502;-76
2022/07/14 09:02:53;;;;;;;0.45;0.38;;;20.50;95.80;;;;;;4777922;29;20311;-75
2022/07/14 09:05:41;;;;;;;0.75;0.47;;;20.50;95.50;;;;;;4781017;29;20066;-75
2022/07/14 09:08:08;;;;;;;2.72;0.93;;;20.60;96.30;;;;;;4779274;29;20441;-74
2022/07/14 09:10:35;;;;;;;1.10;0.50;;;20.60;95.20;;;;;;4763308;29;20054;-75
2022/07/14 09:13:24;;;;;;;1.55;0.47;;;20.80;95.80;;;;;;4780796;29;20054;-75
2022/07/14 09:15:51;;;;;;;1.23;0.57;;;21.00;93.90;;;;;;4777042;29;20066;-75
2022/07/14 09:18:24;;;;;;;0.88;0.68;;;21.00;93.20;;;;;;4764188;29;20059;-75
2022/07/14 09:20:52;;;;;;;;;;;21.10;93.80;;;;;;4794834;29;20058;-75
2022/07/14 09:23:27;;;;;;;0.73;0.30;;;21.20;93.90;;;;;;4792548;29;19929;-75
2022/07/14 09:26:14;;;;;;;0.57;0.50;;;21.40;93.30;;;;;;4763188;29;20565;-75
2022/07/14 09:28:41;;;;;;;1.63;0.40;;;21.60;92.90;;;;;;4793161;29;20055;-75
2022/07/14 09:31:28;;;;;;;1.30;0.75;;;21.70;92.50;;;;;;4793418;29;20349;-75
2022/07/14 09:34:05;;;;;;;0.40;0.30;;;21.80;92.80;;;;;;4792903;29;20154;-75
2022/07/14 09:36:36;;;;;;;1.42;0.70;;;21.90;92.20;;;;;;4778212;29;20071;-75
2022/07/14 09:39:07;;;;;;;0.80;0.50;;;21.90;91.90;;;;;;4762627;29;20047;-75
2022/07/14 09:41:56;;;;;;;1.05;0.55;;;21.80;91.00;;;;;;4762975;29;20064;-75
2022/07/14 09:44:23;;;;;;;0.60;0.40;;;21.70;91.10;;;;;;4794251;29;20050;-75
2022/07/14 09:46:54;;;;;;;1.30;0.73;;;21.70;90.80;;;;;;4795460;29;20062;-76
2022/07/14 09:49:27;;;;;;;1.67;0.60;;;21.70;90.50;;;;;;4796133;29;20059;-75
2022/07/14 09:51:58;;;;;;;3.30;0.73;;;21.70;90.50;;;;;;4782071;29;20404;-75
2022/07/14 09:54:37;;;;;;;0.93;0.68;;;21.90;90.00;;;;;;4781687;29;20046;-75
2022/07/14 09:57:24;;;;;;;1.05;0.60;;;21.90;90.60;;;;;;4797634;29;20123;-75
2022/07/14 09:59:53;;;;;;;0.30;0.30;;;22.00;90.00;;;;;;4769009;29;20063;-77
2022/07/14 10:02:26;;;;;;;0.57;0.35;;;22.10;90.10;;;;;;4797930;29;20119;-76
2022/07/14 10:04:54;;;;;;;;;;;22.30;88.90;;;;;;4785367;29;20062;-76
2022/07/14 10:07:23;;;;;;;0.63;0.50;;;22.30;88.30;;;;;;4797014;29;19932;-77
2022/07/14 10:09:57;;;;;;;1.33;0.73;;;22.40;89.10;;;;;;4782100;29;20066;-76
2022/07/14 10:12:25;;;;;;;0.60;0.60;;;22.60;87.50;;;;;;4780168;29;20055;-77
2022/07/14 10:14:53;;;;;;;2.08;0.68;;;22.80;86.40;;;;;;4760242;30;20576;-77
2022/07/14 10:17:19;;;;;;;1.35;0.52;;;22.90;84.80;;;;;;4783018;29;20063;-77
2022/07/14 10:19:47;;;;;;;0.90;0.60;;;23.10;86.10;;;;;;4759039;30;20047;-76
2022/07/14 10:22:14;;;;;;;1.27;0.80;;;23.30;85.10;;;;;;4768316;29;20420;-76
2022/07/14 10:24:41;;;;;;;0.95;0.50;;;23.30;82.10;;;;;;4757037;30;20082;-76
2022/07/14 10:27:08;;;;;;;0.68;0.50;;;23.40;81.80;;;;;;4756072;30;20077;-77
2022/07/14 10:29:34;;;;;;;0.47;0.45;;;23.50;81.20;;;;;;4770360;29;20108;-78
2022/07/14 10:32:07;;;;;;;0.95;0.60;;;23.70;81.20;;;;;;4768240;30;20055;-77
2022/07/14 10:34:45;;;;;;;0.50;0.47;;;23.80;80.20;;;;;;4784818;29;20268;-77
2022/07/14 10:37:21;;;;;;;0.32;0.32;;;24.10;81.60;;;;;;4780864;29;20090;-77
2022/07/14 10:39:51;;;;;;;0.95;0.50;;;24.30;80.80;;;;;;4796535;29;20115;-77
2022/07/14 10:42:50;;;;;;;0.32;0.32;;;24.40;78.20;;;;;;4793462;29;20112;-77
2022/07/14 10:45:18;;;;;;;0.38;0.38;;;24.40;79.50;;;;;;4779042;29;20464;-77
2022/07/14 10:47:51;;;;;;;0.30;0.30;;;24.40;76.70;;;;;;4779366;29;20124;-77
2022/07/14 10:50:25;;;;;;;1.35;0.80;;;24.40;77.40;;;;;;4770088;30;20096;-77
2022/07/14 10:52:55;;;;;;;0.85;0.40;;;24.10;77.20;;;;;;4780489;29;20059;-78
2022/07/14 10:55:29;;;;;;;1.20;0.50;;;24.10;78.00;;;;;;4794562;29;20063;-77
2022/07/14 10:57:58;;;;;;;1.02;0.57;;;24.30;77.40;;;;;;4794749;29;20506;-77
2022/07/14 11:00:41;;;;;;;0.40;0.25;;;24.50;76.80;;;;;;4795293;29;20418;-77
2022/07/14 11:03:18;;;;;;;0.50;0.30;;;24.50;76.90;;;;;;4796160;29;20050;-77
2022/07/14 11:06:01;;;;;;;0.73;0.50;;;24.40;77.30;;;;;;4780292;29;20066;-77
2022/07/14 11:09:25;;;;;;;0.57;0.38;;;24.10;77.70;;;;;;4794739;29;20063;-77
2022/07/14 11:12:12;;;;;;;0.60;0.40;;;24.00;78.00;;;;;;4795507;29;20059;-77
2022/07/14 11:14:41;;;;;;;0.40;0.20;;;24.00;77.60;;;;;;4765401;29;20058;-77
2022/07/14 11:17:28;;;;;;;0.35;0.20;;;23.80;78.00;;;;;;4794802;29;20095;-77
2022/07/14 11:19:55;;;;;;;0.82;0.40;;;23.80;77.50;;;;;;4782367;29;20100;-77
2022/07/14 11:22:23;;;;;;;0.47;0.25;;;24.00;77.30;;;;;;4780566;29;20067;-78
2022/07/14 11:24:58;;;;;;;0.63;0.40;;;24.10;77.60;;;;;;4764917;29;20085;-77
2022/07/14 11:27:28;;;;;;;0.70;0.35;;;24.10;75.70;;;;;;4765445;29;20131;-77
2022/07/14 11:30:16;;;;;;;0.68;0.40;;;24.10;76.40;;;;;;4780226;29;20742;-77
2022/07/14 11:32:42;;;;;;;0.50;0.40;;;24.10;75.50;;;;;;4782309;29;20151;-77
2022/07/14 11:37:59;;;;;;;0.55;0.40;;;24.30;74.70;;;;;;4781554;29;20696;-77
2022/07/14 11:40:52;;;;;;;0.75;0.40;;;24.60;72.50;;;;;;4765389;29;20065;-77
2022/07/14 11:43:31;;;;;;;0.40;0.30;;;24.80;73.10;;;;;;4794302;29;20062;-77
2022/07/14 11:46:09;;;;;;;0.90;0.35;;;25.00;72.80;;;;;;4794991;29;20301;-77
2022/07/14 11:48:44;;;;;;;1.23;0.70;;;25.00;71.90;;;;;;4794097;29;20537;-77
2022/07/14 11:51:19;;;;;;;0.40;0.30;;;25.20;70.50;;;;;;4795495;29;20081;-77
2022/07/14 11:53:46;;;;;;;0.40;0.40;;;25.20;69.50;;;;;;4765425;29;20051;-77
2022/07/14 11:56:13;;;;;;;0.63;0.63;;;25.40;69.00;;;;;;4793792;29;20461;-77
2022/07/14 11:58:40;;;;;;;1.00;0.30;;;25.60;69.00;;;;;;4779829;29;20063;-77
2022/07/14 12:01:08;;;;;;;0.40;0.40;;;25.60;68.70;;;;;;4778111;29;20063;-77
2022/07/14 12:03:35;;;;;;;0.85;0.52;;;25.60;68.60;;;;;;4764137;29;20456;-77
2022/07/14 12:06:02;;;;;;;0.43;0.43;;;26.00;69.10;;;;;;4779538;29;20066;-78
2022/07/14 12:08:31;;;;;;;0.75;0.50;;;26.30;66.90;;;;;;4793630;29;20132;-78
2022/07/14 12:11:11;;;;;;;0.55;0.40;;;26.70;66.40;;;;;;4778806;29;20062;-78
2022/07/14 12:13:51;;;;;;;0.68;0.47;;;26.80;65.00;;;;;;4794156;29;20090;-78
2022/07/14 12:16:18;;;;;;;0.80;0.40;;;26.80;65.70;;;;;;4793509;29;20090;-78
2022/07/14 12:18:45;;;;;;;0.52;0.40;;;26.90;64.80;;;;;;4779229;29;20086;-75
2022/07/14 12:21:13;;;;;;;1.17;0.60;;;27.30;63.40;;;;;;4793608;29;20074;-76
2022/07/14 12:23:55;;;;;;;0.30;0.30;;;27.50;62.80;;;;;;4793466;29;20134;-76
2022/07/14 12:26:23;;;;;;;0.40;0.40;;;27.70;62.80;;;;;;4792876;29;20063;-76
2022/07/14 12:28:51;;;;;;;2.08;0.40;;;28.30;63.40;;;;;;4778582;29;20059;-76
2022/07/14 12:31:19;;;;;;;0.68;0.45;;;28.90;61.80;;;;;;4777743;29;20498;-76
2022/07/14 12:33:46;;;;;;;0.40;0.40;;;28.60;60.00;;;;;;4793357;29;20152;-76
2022/07/14 12:36:15;;;;;;;1.02;0.50;;;28.50;60.00;;;;;;4778043;29;20062;-76
2022/07/14 12:38:42;;;;;;;0.50;0.40;;;28.60;58.40;;;;;;4777858;29;20168;-76
2022/07/14 12:41:09;;;;;;;0.52;0.40;;;28.40;58.70;;;;;;4778935;29;20963;-76
2022/07/14 12:43:37;;;;;;;0.45;0.40;;;28.50;58.50;;;;;;4779115;29;20085;-76
2022/07/14 12:46:05;;;;;;;0.75;0.40;;;28.70;59.10;;;;;;4779943;29;20051;-77
2022/07/14 12:48:50;;;;;;;0.40;0.40;;;28.80;57.80;;;;;;4794263;29;20104;-77
2022/07/14 12:51:25;;;;;;;0.30;0.30;;;28.40;57.10;;;;;;4789093;29;20112;-77
2022/07/14 12:54:02;;;;;;;0.45;0.40;;;28.90;57.80;;;;;;4762818;29;20082;-77
2022/07/14 12:56:36;;;;;;;0.80;0.50;;;29.00;56.60;;;;;;4766193;30;20687;-77
2022/07/14 12:59:05;;;;;;;1.00;0.50;;;29.40;56.70;;;;;;4766114;30;20055;-77
2022/07/14 13:02:00;;;;;;;0.40;0.40;;;29.80;55.90;;;;;;4768177;29;20048;-80
2022/07/14 13:04:36;;;;;;;1.40;0.77;;;29.80;57.80;;;;;;4785102;29;20146;-76
2022/07/14 13:07:21;;;;;;;0.38;0.38;;;29.90;57.90;;;;;;4765845;30;20055;-77
2022/07/14 13:10:14;;;;;;;0.50;0.50;;;30.30;57.20;;;;;;4770938;29;20079;-77
2022/07/14 13:12:44;;;;;;;0.47;0.40;;;30.70;56.30;;;;;;4777169;29;20508;-76
2022/07/14 13:15:14;;;;;;;0.40;0.40;;;30.90;57.30;;;;;;4793724;29;20149;-76